Lorton Lick, West Virginia
Current Conditions -  °F | °C
As of 6:52 AM on Sunday 21 Dec 2014 (Local Time) from KBLF Reporting Station
Overcast Overcast  
Wind Chill: 32°   Ceiling: 2200
Heat Index: 32°   Visibility: 10mi
Dew Point: 27°   Wind: 0mph
Humidity: 82%   Direction: NA
Pressure: 30.2"   Gusts: NA
Location:  37.2994°N, 81.226°W
Report Text: KBLF 211152Z AUTO 00000KT 10SM OVC022 00/M03 A3020 RMK AO2 SLP241 70001 T00001028 10006 20000 53004
Loading
Personal Weather Stations






























Interactive Weather Map New forecast layout! Learn more

10-Day Weather Forecast

Advertisements
Track Severe Weather on mobile